createdAt,value
2019-05-19T00:00:41.299Z,15.00
2019-05-19T00:03:31.798Z,15.00
2019-05-19T00:06:20.958Z,14.90
2019-05-19T00:09:11.806Z,14.90
2019-05-19T00:12:01.448Z,14.80
2019-05-19T00:14:51.094Z,14.70
2019-05-19T00:17:39.851Z,14.60
2019-05-19T00:20:30.591Z,14.60
2019-05-19T00:23:21.602Z,14.60
2019-05-19T00:26:17.537Z,14.50
2019-05-19T00:29:08.055Z,14.40
2019-05-19T00:31:56.851Z,14.30
2019-05-19T00:34:46.501Z,14.20
2019-05-19T00:37:35.667Z,14.20
2019-05-19T00:40:24.390Z,14.30
2019-05-19T00:43:14.640Z,14.30
2019-05-19T00:46:04.091Z,14.30
2019-05-19T00:48:53.823Z,14.30
2019-05-19T00:51:44.702Z,14.20
2019-05-19T00:54:34.938Z,14.10
2019-05-19T00:57:25.931Z,14.00
2019-05-19T01:00:16.138Z,13.80
2019-05-19T01:03:06.326Z,13.80
2019-05-19T01:05:56.433Z,13.70
2019-05-19T01:08:46.505Z,13.60
2019-05-19T01:11:36.140Z,13.50
2019-05-19T01:14:25.746Z,13.50
2019-05-19T01:17:15.140Z,13.40
2019-05-19T01:20:06.422Z,13.30
2019-05-19T01:23:04.805Z,13.30
2019-05-19T01:25:54.379Z,13.20
2019-05-19T01:28:44.139Z,13.10
2019-05-19T01:31:34.220Z,13.00
2019-05-19T01:34:23.566Z,12.90
2019-05-19T01:37:12.782Z,12.90
2019-05-19T01:40:02.393Z,12.80
2019-05-19T01:42:52.705Z,12.70
2019-05-19T01:45:41.380Z,12.80
2019-05-19T01:48:31.443Z,13.00
2019-05-19T01:51:20.712Z,13.00
2019-05-19T01:54:10.292Z,13.00
2019-05-19T01:57:00.516Z,12.90
2019-05-19T01:59:51.104Z,12.70
2019-05-19T02:02:40.595Z,12.60
2019-05-19T02:05:30.843Z,12.40
2019-05-19T02:08:21.334Z,12.30
2019-05-19T02:11:10.061Z,12.20
2019-05-19T02:13:58.754Z,12.20
2019-05-19T02:16:48.355Z,12.10
2019-05-19T02:19:39.123Z,12.00
2019-05-19T02:22:29.934Z,11.90
2019-05-19T02:25:20.969Z,11.90
2019-05-19T02:28:11.960Z,11.80
2019-05-19T02:31:01.215Z,11.80
2019-05-19T02:33:49.972Z,11.80
2019-05-19T02:36:40.495Z,11.80
2019-05-19T02:39:30.018Z,11.70
2019-05-19T02:42:21.280Z,11.60
2019-05-19T02:45:12.791Z,11.60
2019-05-19T02:48:03.650Z,11.50
2019-05-19T02:50:55.043Z,11.40
2019-05-19T02:53:46.028Z,11.30
2019-05-19T02:56:36.812Z,11.30
2019-05-19T02:59:27.465Z,11.20
2019-05-19T03:02:17.382Z,11.20
2019-05-19T03:05:07.503Z,11.10
2019-05-19T03:07:57.621Z,11.10
2019-05-19T03:10:47.133Z,11.00
2019-05-19T03:13:36.000Z,10.90
2019-05-19T03:16:25.802Z,10.90
2019-05-19T03:19:15.047Z,10.80
2019-05-19T03:22:05.828Z,10.90
2019-05-19T03:24:56.039Z,10.90
2019-05-19T03:27:46.196Z,10.90
2019-05-19T03:30:44.431Z,10.90
2019-05-19T03:33:34.548Z,10.90
2019-05-19T03:36:23.479Z,10.90
2019-05-19T03:39:13.163Z,10.80
2019-05-19T03:42:00.680Z,10.80
2019-05-19T03:44:50.815Z,10.70
2019-05-19T03:47:40.705Z,10.70
2019-05-19T03:50:30.439Z,10.60
2019-05-19T03:53:19.769Z,10.60
2019-05-19T03:56:10.783Z,10.60
2019-05-19T03:59:00.870Z,10.60
2019-05-19T04:01:51.580Z,10.60
2019-05-19T04:04:41.998Z,10.60
2019-05-19T04:07:31.976Z,10.60
2019-05-19T04:10:21.894Z,10.70
2019-05-19T04:13:12.041Z,10.80
2019-05-19T04:16:00.731Z,10.90
2019-05-19T04:18:49.943Z,10.80
2019-05-19T04:21:48.712Z,10.80
2019-05-19T04:24:33.658Z,10.80
2019-05-19T04:27:23.680Z,10.80
2019-05-19T04:30:13.072Z,10.70
2019-05-19T04:33:02.844Z,10.80
2019-05-19T04:35:51.803Z,10.80
2019-05-19T04:38:40.331Z,10.80
2019-05-19T04:41:30.091Z,10.80
2019-05-19T04:44:20.300Z,10.80
2019-05-19T04:47:10.107Z,10.80
2019-05-19T04:49:59.487Z,10.80
2019-05-19T04:52:48.613Z,10.90
2019-05-19T04:55:37.807Z,10.90
2019-05-19T04:58:27.599Z,10.90
2019-05-19T05:01:16.777Z,11.00
2019-05-19T05:04:07.784Z,11.10
2019-05-19T05:06:57.546Z,11.20
2019-05-19T05:09:46.321Z,11.20
2019-05-19T05:12:35.889Z,11.20
2019-05-19T05:15:26.106Z,11.30
2019-05-19T05:18:16.618Z,11.40
2019-05-19T05:21:08.182Z,11.40
2019-05-19T05:23:59.186Z,11.50
2019-05-19T05:26:50.331Z,11.60
2019-05-19T05:29:39.359Z,11.80
2019-05-19T05:32:28.898Z,11.80
2019-05-19T05:35:18.753Z,12.00
2019-05-19T05:38:08.217Z,12.10
2019-05-19T05:40:58.663Z,12.20
2019-05-19T05:43:48.753Z,12.30
2019-05-19T05:46:39.165Z,12.50
2019-05-19T05:49:28.723Z,12.60
2019-05-19T05:52:18.669Z,12.80
2019-05-19T05:55:08.427Z,12.90
2019-05-19T05:57:58.842Z,13.00
2019-05-19T06:00:48.475Z,13.20
2019-05-19T06:03:40.111Z,13.40
2019-05-19T06:06:29.678Z,13.50
2019-05-19T06:09:19.406Z,13.70
2019-05-19T06:12:09.186Z,13.80
2019-05-19T06:14:57.851Z,14.00
2019-05-19T06:17:47.854Z,14.20
2019-05-19T06:20:38.732Z,14.40
2019-05-19T06:23:28.530Z,14.60
2019-05-19T06:26:18.310Z,14.70
2019-05-19T06:29:12.576Z,14.90
2019-05-19T06:32:12.774Z,15.10
2019-05-19T06:35:04.709Z,15.40
2019-05-19T06:37:54.111Z,15.70
2019-05-19T06:40:43.467Z,16.10
2019-05-19T06:43:33.522Z,16.30
2019-05-19T06:46:24.880Z,16.40
2019-05-19T06:49:15.591Z,16.50
2019-05-19T06:52:05.027Z,16.70
2019-05-19T06:54:55.670Z,17.00
2019-05-19T06:57:44.838Z,17.20
2019-05-19T07:03:38.198Z,17.70
2019-05-19T07:06:28.227Z,18.10
2019-05-19T07:09:18.030Z,18.20
2019-05-19T07:12:07.218Z,18.30
2019-05-19T07:14:55.878Z,18.50
2019-05-19T07:17:45.310Z,18.70
2019-05-19T07:20:34.838Z,18.70
2019-05-19T07:23:30.991Z,18.90
2019-05-19T07:26:21.100Z,19.20
2019-05-19T07:29:11.289Z,19.40
2019-05-19T07:32:00.291Z,19.50
2019-05-19T07:34:49.736Z,19.70
2019-05-19T07:37:38.991Z,19.70
2019-05-19T07:40:28.629Z,19.80
2019-05-19T07:43:19.816Z,20.10
2019-05-19T07:46:09.598Z,20.40
2019-05-19T07:48:59.346Z,20.70
2019-05-19T07:51:49.113Z,20.80
2019-05-19T07:54:38.512Z,20.90
2019-05-19T07:57:29.305Z,21.10
2019-05-19T08:00:18.966Z,21.30
2019-05-19T08:03:12.151Z,21.40
2019-05-19T08:06:02.775Z,21.50
2019-05-19T08:08:53.517Z,21.70
2019-05-19T08:11:42.862Z,21.80
2019-05-19T08:14:31.768Z,21.90
2019-05-19T08:17:21.548Z,22.00
2019-05-19T08:20:11.879Z,22.20
2019-05-19T08:23:02.936Z,22.30
2019-05-19T08:25:53.248Z,22.50
2019-05-19T08:28:44.667Z,22.60
2019-05-19T08:31:34.866Z,22.00
2019-05-19T08:34:24.527Z,22.30
2019-05-19T08:37:14.634Z,22.70
2019-05-19T08:40:03.771Z,23.20
2019-05-19T08:42:54.345Z,23.10
2019-05-19T08:45:43.850Z,23.20
2019-05-19T08:48:33.776Z,22.50
2019-05-19T08:51:22.974Z,22.30
2019-05-19T08:54:15.092Z,22.50
2019-05-19T08:57:02.483Z,22.50
2019-05-19T08:59:52.401Z,23.00
2019-05-19T09:02:43.028Z,22.60
2019-05-19T09:05:33.877Z,22.70
2019-05-19T09:08:22.783Z,23.10
2019-05-19T09:11:12.342Z,23.30
2019-05-19T09:14:01.540Z,23.60
2019-05-19T09:16:51.506Z,23.50
2019-05-19T09:19:41.282Z,23.60
2019-05-19T09:22:31.537Z,23.80
2019-05-19T09:25:21.780Z,23.90
2019-05-19T09:28:11.942Z,23.90
2019-05-19T09:31:01.456Z,23.90
2019-05-19T09:33:57.282Z,24.00
2019-05-19T09:36:47.162Z,23.40
2019-05-19T09:39:35.791Z,23.20
2019-05-19T09:42:25.485Z,22.90
2019-05-19T09:45:16.654Z,23.00
2019-05-19T09:48:07.574Z,23.00
2019-05-19T09:50:56.757Z,23.30
2019-05-19T09:53:46.554Z,23.50
2019-05-19T09:56:35.364Z,23.50
2019-05-19T09:59:24.728Z,23.40
2019-05-19T10:02:15.523Z,23.30
2019-05-19T10:05:06.677Z,23.20
2019-05-19T10:07:56.958Z,23.20
2019-05-19T10:11:30.873Z,23.00
2019-05-19T10:14:19.723Z,23.30
2019-05-19T10:17:10.106Z,23.30
2019-05-19T10:19:59.625Z,23.40
2019-05-19T10:22:50.834Z,23.20
2019-05-19T10:25:40.475Z,22.80
2019-05-19T10:28:32.455Z,23.10
2019-05-19T10:31:21.339Z,23.10
2019-05-19T10:34:11.187Z,23.00
2019-05-19T10:37:00.595Z,22.80
2019-05-19T10:39:51.729Z,22.70
2019-05-19T10:42:42.376Z,22.50
2019-05-19T10:45:31.154Z,22.50
2019-05-19T10:48:21.370Z,22.50
2019-05-19T10:51:10.670Z,22.40
2019-05-19T10:54:00.447Z,22.60
2019-05-19T10:56:49.381Z,22.40
2019-05-19T10:59:39.010Z,22.40
2019-05-19T11:02:30.034Z,22.60
2019-05-19T11:05:25.346Z,22.50
2019-05-19T11:08:15.436Z,22.50
2019-05-19T11:11:05.734Z,22.60
2019-05-19T11:13:55.503Z,22.40
2019-05-19T11:16:44.642Z,22.30
2019-05-19T11:19:33.703Z,22.30
2019-05-19T11:22:25.060Z,22.30
2019-05-19T11:25:16.685Z,22.40
2019-05-19T11:28:07.482Z,22.40
2019-05-19T11:30:57.467Z,22.50
2019-05-19T11:33:47.365Z,22.60
2019-05-19T11:36:36.734Z,22.30
2019-05-19T11:39:26.327Z,22.40
2019-05-19T11:42:16.387Z,22.50
2019-05-19T11:45:06.726Z,22.50
2019-05-19T11:47:57.591Z,22.40
2019-05-19T11:50:46.461Z,22.40
2019-05-19T11:53:35.301Z,22.50
2019-05-19T11:56:24.685Z,22.30
2019-05-19T11:59:13.764Z,22.20
2019-05-19T12:02:04.264Z,22.20
2019-05-19T12:04:55.469Z,22.10
2019-05-19T12:07:44.556Z,21.80
2019-05-19T12:10:34.115Z,21.70
2019-05-19T12:13:23.823Z,21.70
2019-05-19T12:16:14.835Z,21.70
2019-05-19T12:19:03.520Z,21.60
2019-05-19T12:21:54.357Z,21.60
2019-05-19T12:24:43.453Z,21.60
2019-05-19T12:27:33.399Z,21.60
2019-05-19T12:30:22.483Z,21.80
2019-05-19T12:33:11.955Z,21.80
2019-05-19T12:36:01.630Z,21.70
2019-05-19T12:38:50.492Z,21.70
2019-05-19T12:41:39.862Z,21.60
2019-05-19T12:44:30.178Z,21.70
2019-05-19T12:47:20.351Z,21.70
2019-05-19T12:50:11.902Z,21.70
2019-05-19T12:53:01.039Z,21.70
2019-05-19T12:55:50.750Z,21.70
2019-05-19T12:58:40.363Z,21.80
2019-05-19T13:01:31.506Z,21.90
2019-05-19T13:04:21.697Z,22.00
2019-05-19T13:07:11.480Z,22.20
2019-05-19T13:10:00.837Z,22.40
2019-05-19T13:12:51.006Z,22.50
2019-05-19T13:15:40.135Z,22.60
2019-05-19T13:18:29.762Z,22.60
2019-05-19T13:21:19.767Z,22.70
2019-05-19T13:24:09.619Z,22.80
2019-05-19T13:27:00.263Z,22.90
2019-05-19T13:29:49.156Z,23.00
2019-05-19T13:32:38.753Z,23.20
2019-05-19T13:35:28.109Z,23.20
2019-05-19T13:38:17.569Z,23.00
2019-05-19T13:41:07.250Z,23.30
2019-05-19T13:43:59.643Z,23.40
2019-05-19T13:46:47.910Z,23.40
2019-05-19T13:49:38.992Z,23.20
2019-05-19T13:52:29.723Z,23.20
2019-05-19T13:55:19.764Z,23.20
2019-05-19T13:58:09.511Z,23.00
2019-05-19T14:00:59.852Z,22.90
2019-05-19T14:03:52.255Z,22.60
2019-05-19T14:06:42.463Z,22.50
2019-05-19T14:09:31.461Z,22.50
2019-05-19T14:12:20.471Z,22.50
2019-05-19T14:15:10.798Z,22.40
2019-05-19T14:17:59.783Z,22.50
2019-05-19T14:20:49.770Z,22.50
2019-05-19T14:23:40.517Z,22.40
2019-05-19T14:26:29.678Z,22.30
2019-05-19T14:29:26.512Z,22.30
2019-05-19T14:32:15.113Z,22.30
2019-05-19T14:35:04.504Z,22.50
2019-05-19T14:37:54.426Z,22.60
2019-05-19T14:40:45.146Z,23.00
2019-05-19T14:43:35.134Z,23.10
2019-05-19T14:46:24.543Z,23.10
2019-05-19T14:49:27.603Z,23.10
2019-05-19T14:52:17.134Z,23.00
2019-05-19T14:55:07.104Z,23.00
2019-05-19T14:57:57.926Z,23.00
2019-05-19T15:00:53.071Z,23.10
2019-05-19T15:03:43.502Z,23.20
2019-05-19T15:06:34.376Z,23.30
2019-05-19T15:09:26.255Z,23.80
2019-05-19T15:12:22.095Z,24.60
2019-05-19T15:15:11.747Z,24.70
2019-05-19T15:18:01.064Z,24.50
2019-05-19T15:20:53.084Z,24.90
2019-05-19T15:23:43.313Z,25.30
2019-05-19T15:26:40.078Z,25.30
2019-05-19T15:29:30.738Z,24.90
2019-05-19T15:32:20.238Z,24.40
2019-05-19T15:35:10.195Z,24.00
2019-05-19T15:37:59.487Z,23.80
2019-05-19T15:40:48.236Z,23.60
2019-05-19T15:43:38.209Z,23.60
2019-05-19T15:46:27.696Z,23.60
2019-05-19T15:49:16.950Z,23.60
2019-05-19T15:52:07.589Z,23.50
2019-05-19T15:54:57.437Z,23.40
2019-05-19T15:57:46.499Z,23.40
2019-05-19T16:00:36.560Z,23.30
2019-05-19T16:03:32.591Z,23.30
2019-05-19T16:06:21.951Z,23.30
2019-05-19T16:09:11.363Z,23.20
2019-05-19T16:12:01.988Z,23.30
2019-05-19T16:14:51.407Z,23.30
2019-05-19T20:45:52.362Z,16.10
2019-05-19T20:48:41.951Z,16.00
2019-05-19T20:51:33.838Z,16.00
2019-05-19T20:54:23.356Z,15.90
